createdAt,value
2023-12-27T00:06:25.289Z,2.35
2023-12-27T00:29:16.031Z,2.21
2023-12-27T00:52:06.941Z,2.17
2023-12-27T01:14:57.785Z,1.90
2023-12-27T01:37:49.816Z,1.30
2023-12-27T02:00:48.462Z,1.33
2023-12-27T02:23:42.523Z,2.14
2023-12-27T02:46:37.468Z,2.58
2023-12-27T03:09:28.468Z,2.09
2023-12-27T03:32:19.169Z,1.52
2023-12-27T03:55:11.322Z,0.99
2023-12-27T04:18:02.697Z,0.47
2023-12-27T04:40:55.657Z,0.19
2023-12-27T05:03:46.700Z,-0.08
2023-12-27T05:26:37.413Z,0.04
2023-12-27T05:49:28.426Z,-0.18
2023-12-27T06:12:19.563Z,-0.30
2023-12-27T06:35:10.502Z,-0.24
2023-12-27T06:58:01.636Z,0.32
2023-12-27T07:20:52.410Z,0.70
2023-12-27T07:43:43.205Z,0.77
2023-12-27T08:06:36.435Z,0.83
2023-12-27T08:29:28.002Z,1.25
2023-12-27T08:52:18.883Z,1.82
2023-12-27T09:15:10.097Z,2.42
2023-12-27T09:38:00.950Z,3.07
2023-12-27T10:00:54.435Z,3.50
2023-12-27T10:23:45.107Z,3.88
2023-12-27T10:46:36.066Z,4.15
2023-12-27T11:09:31.548Z,4.59
2023-12-27T11:32:22.149Z,4.93
2023-12-27T11:55:21.330Z,5.07
2023-12-27T12:18:13.342Z,5.15
2023-12-27T12:41:04.888Z,4.67
2023-12-27T13:03:58.174Z,4.59
2023-12-27T13:26:48.761Z,4.38
2023-12-27T13:49:39.599Z,4.19
2023-12-27T14:12:30.465Z,4.21
2023-12-27T14:35:22.898Z,4.41
2023-12-27T14:58:13.950Z,4.57
2023-12-27T15:21:06.011Z,4.84
2023-12-27T15:44:00.853Z,5.14
2023-12-27T16:06:51.945Z,5.39
2023-12-27T16:29:44.562Z,5.54
2023-12-27T16:52:35.464Z,5.72
2023-12-27T17:15:26.642Z,5.64
2023-12-27T17:38:17.876Z,5.61
2023-12-27T18:01:09.915Z,5.54
2023-12-27T18:24:01.833Z,5.48
2023-12-27T18:46:53.080Z,5.48
2023-12-27T19:09:43.970Z,5.57
2023-12-27T19:32:35.362Z,6.06
2023-12-27T19:55:26.563Z,6.00
2023-12-27T20:18:18.422Z,6.10
2023-12-27T20:41:10.324Z,6.12
2023-12-27T21:15:54.063Z,6.63
2023-12-27T21:38:50.391Z,6.92
2023-12-27T22:01:48.668Z,7.69
2023-12-27T22:24:41.578Z,7.35
2023-12-27T22:47:34.913Z,6.46
2023-12-27T23:10:27.746Z,6.69
2023-12-27T23:33:20.577Z,7.02
2023-12-27T23:56:18.644Z,6.91
